sensor_id;sensor_type;location;lat;lon;timestamp;P1;durP1;ratioP1;P2;durP2;ratioP2
18251;SDS011;26917;52.328;20.878;2022-10-31T00:01:16;47.42;;;23.63;;
18251;SDS011;26917;52.328;20.878;2022-10-31T00:03:46;39.05;;;25.50;;
18251;SDS011;26917;52.328;20.878;2022-10-31T00:06:15;44.35;;;25.90;;
18251;SDS011;26917;52.328;20.878;2022-10-31T00:08:44;42.72;;;25.35;;
18251;SDS011;26917;52.328;20.878;2022-10-31T00:11:13;48.13;;;26.67;;
18251;SDS011;26917;52.328;20.878;2022-10-31T00:13:41;45.35;;;25.27;;
18251;SDS011;26917;52.328;20.878;2022-10-31T00:16:14;43.42;;;25.77;;
18251;SDS011;26917;52.328;20.878;2022-10-31T00:18:43;48.15;;;26.65;;
18251;SDS011;26917;52.328;20.878;2022-10-31T00:21:11;46.53;;;25.50;;
18251;SDS011;26917;52.328;20.878;2022-10-31T00:23:39;51.80;;;25.50;;
18251;SDS011;26917;52.328;20.878;2022-10-31T00:26:07;41.90;;;22.98;;
18251;SDS011;26917;52.328;20.878;2022-10-31T00:28:36;42.70;;;24.60;;
18251;SDS011;26917;52.328;20.878;2022-10-31T00:31:05;39.88;;;24.00;;
18251;SDS011;26917;52.328;20.878;2022-10-31T00:33:36;38.28;;;22.85;;
18251;SDS011;26917;52.328;20.878;2022-10-31T00:36:06;39.75;;;23.70;;
18251;SDS011;26917;52.328;20.878;2022-10-31T00:38:35;40.88;;;23.80;;
18251;SDS011;26917;52.328;20.878;2022-10-31T00:41:03;47.70;;;23.58;;
18251;SDS011;26917;52.328;20.878;2022-10-31T00:43:32;39.00;;;23.58;;
18251;SDS011;26917;52.328;20.878;2022-10-31T00:46:00;49.60;;;26.27;;
18251;SDS011;26917;52.328;20.878;2022-10-31T00:48:28;44.42;;;25.45;;
18251;SDS011;26917;52.328;20.878;2022-10-31T00:50:58;51.03;;;25.90;;
18251;SDS011;26917;52.328;20.878;2022-10-31T00:53:27;38.03;;;23.95;;
18251;SDS011;26917;52.328;20.878;2022-10-31T00:55:55;37.78;;;23.05;;
18251;SDS011;26917;52.328;20.878;2022-10-31T00:58:23;41.63;;;24.15;;
18251;SDS011;26917;52.328;20.878;2022-10-31T01:00:52;39.38;;;22.52;;
18251;SDS011;26917;52.328;20.878;2022-10-31T01:03:22;37.75;;;22.58;;
18251;SDS011;26917;52.328;20.878;2022-10-31T01:06:00;35.17;;;20.95;;
18251;SDS011;26917;52.328;20.878;2022-10-31T01:08:31;38.85;;;21.45;;
18251;SDS011;26917;52.328;20.878;2022-10-31T01:11:01;38.15;;;20.98;;
18251;SDS011;26917;52.328;20.878;2022-10-31T01:13:31;33.60;;;21.83;;
18251;SDS011;26917;52.328;20.878;2022-10-31T01:16:00;43.45;;;24.25;;
18251;SDS011;26917;52.328;20.878;2022-10-31T01:18:31;40.42;;;22.85;;
18251;SDS011;26917;52.328;20.878;2022-10-31T01:21:02;51.83;;;25.63;;
18251;SDS011;26917;52.328;20.878;2022-10-31T01:23:32;40.40;;;24.38;;
18251;SDS011;26917;52.328;20.878;2022-10-31T01:26:02;37.95;;;24.30;;
18251;SDS011;26917;52.328;20.878;2022-10-31T01:28:33;43.25;;;25.17;;
18251;SDS011;26917;52.328;20.878;2022-10-31T01:31:02;42.08;;;24.70;;
18251;SDS011;26917;52.328;20.878;2022-10-31T01:33:33;47.88;;;26.15;;
18251;SDS011;26917;52.328;20.878;2022-10-31T01:36:11;40.60;;;23.10;;
18251;SDS011;26917;52.328;20.878;2022-10-31T01:38:41;43.88;;;25.35;;
18251;SDS011;26917;52.328;20.878;2022-10-31T01:41:09;43.95;;;25.48;;
18251;SDS011;26917;52.328;20.878;2022-10-31T01:43:43;46.90;;;25.60;;
18251;SDS011;26917;52.328;20.878;2022-10-31T01:46:13;47.83;;;26.73;;
18251;SDS011;26917;52.328;20.878;2022-10-31T01:48:43;38.90;;;24.05;;
18251;SDS011;26917;52.328;20.878;2022-10-31T01:51:12;49.65;;;24.63;;
18251;SDS011;26917;52.328;20.878;2022-10-31T01:53:43;46.70;;;24.92;;
18251;SDS011;26917;52.328;20.878;2022-10-31T01:56:13;43.83;;;24.42;;
18251;SDS011;26917;52.328;20.878;2022-10-31T01:58:44;44.30;;;24.67;;
18251;SDS011;26917;52.328;20.878;2022-10-31T02:01:15;50.10;;;25.75;;
18251;SDS011;26917;52.328;20.878;2022-10-31T02:03:45;51.33;;;26.40;;
18251;SDS011;26917;52.328;20.878;2022-10-31T02:06:19;44.15;;;24.67;;
18251;SDS011;26917;52.328;20.878;2022-10-31T02:08:54;47.17;;;25.92;;
18251;SDS011;26917;52.328;20.878;2022-10-31T02:11:24;44.45;;;25.85;;
18251;SDS011;26917;52.328;20.878;2022-10-31T02:13:55;54.70;;;27.38;;
18251;SDS011;26917;52.328;20.878;2022-10-31T02:16:23;46.83;;;26.52;;
18251;SDS011;26917;52.328;20.878;2022-10-31T02:18:52;45.78;;;26.77;;
18251;SDS011;26917;52.328;20.878;2022-10-31T02:21:23;50.95;;;28.13;;
18251;SDS011;26917;52.328;20.878;2022-10-31T02:26:52;57.70;;;34.50;;
18251;SDS011;26917;52.328;20.878;2022-10-31T02:29:36;61.70;;;36.95;;
18251;SDS011;26917;52.328;20.878;2022-10-31T02:35:39;69.10;;;37.88;;
18251;SDS011;26917;52.328;20.878;2022-10-31T02:38:24;63.05;;;36.22;;
18251;SDS011;26917;52.328;20.878;2022-10-31T02:41:00;59.85;;;32.22;;
18251;SDS011;26917;52.328;20.878;2022-10-31T02:43:44;52.92;;;31.00;;
18251;SDS011;26917;52.328;20.878;2022-10-31T02:46:23;52.67;;;29.52;;
18251;SDS011;26917;52.328;20.878;2022-10-31T02:48:59;49.33;;;29.70;;
18251;SDS011;26917;52.328;20.878;2022-10-31T02:51:32;52.75;;;28.38;;
18251;SDS011;26917;52.328;20.878;2022-10-31T02:54:00;49.00;;;27.92;;
18251;SDS011;26917;52.328;20.878;2022-10-31T02:56:28;44.15;;;27.35;;
18251;SDS011;26917;52.328;20.878;2022-10-31T02:58:58;55.95;;;29.85;;
18251;SDS011;26917;52.328;20.878;2022-10-31T03:01:33;53.28;;;27.75;;
18251;SDS011;26917;52.328;20.878;2022-10-31T03:04:21;45.22;;;27.30;;
18251;SDS011;26917;52.328;20.878;2022-10-31T03:07:15;47.53;;;29.17;;
18251;SDS011;26917;52.328;20.878;2022-10-31T03:09:51;53.38;;;29.02;;
18251;SDS011;26917;52.328;20.878;2022-10-31T03:12:26;56.25;;;31.08;;
18251;SDS011;26917;52.328;20.878;2022-10-31T03:14:59;59.83;;;30.65;;
18251;SDS011;26917;52.328;20.878;2022-10-31T03:17:41;63.13;;;32.63;;
18251;SDS011;26917;52.328;20.878;2022-10-31T03:20:19;64.97;;;33.88;;
18251;SDS011;26917;52.328;20.878;2022-10-31T03:22:51;54.63;;;32.28;;
18251;SDS011;26917;52.328;20.878;2022-10-31T03:25:22;61.63;;;33.20;;
18251;SDS011;26917;52.328;20.878;2022-10-31T03:27:55;56.67;;;32.72;;
18251;SDS011;26917;52.328;20.878;2022-10-31T03:30:27;76.53;;;36.78;;
18251;SDS011;26917;52.328;20.878;2022-10-31T03:32:57;57.00;;;31.35;;
18251;SDS011;26917;52.328;20.878;2022-10-31T03:35:30;55.22;;;31.58;;
18251;SDS011;26917;52.328;20.878;2022-10-31T03:38:01;65.88;;;35.13;;
18251;SDS011;26917;52.328;20.878;2022-10-31T03:40:33;51.95;;;28.90;;
18251;SDS011;26917;52.328;20.878;2022-10-31T03:43:05;48.92;;;28.90;;
18251;SDS011;26917;52.328;20.878;2022-10-31T03:45:38;52.10;;;27.50;;
18251;SDS011;26917;52.328;20.878;2022-10-31T03:48:10;50.47;;;26.77;;
18251;SDS011;26917;52.328;20.878;2022-10-31T03:50:44;39.72;;;24.02;;
18251;SDS011;26917;52.328;20.878;2022-10-31T03:53:19;44.90;;;26.60;;
18251;SDS011;26917;52.328;20.878;2022-10-31T03:55:54;52.05;;;24.92;;
18251;SDS011;26917;52.328;20.878;2022-10-31T03:58:27;42.63;;;24.85;;
18251;SDS011;26917;52.328;20.878;2022-10-31T04:01:00;48.30;;;27.50;;
18251;SDS011;26917;52.328;20.878;2022-10-31T04:03:30;43.92;;;26.77;;
18251;SDS011;26917;52.328;20.878;2022-10-31T04:06:03;46.85;;;28.20;;
18251;SDS011;26917;52.328;20.878;2022-10-31T04:08:37;54.95;;;30.67;;
18251;SDS011;26917;52.328;20.878;2022-10-31T04:11:12;58.45;;;31.25;;
18251;SDS011;26917;52.328;20.878;2022-10-31T04:13:50;50.90;;;28.85;;
18251;SDS011;26917;52.328;20.878;2022-10-31T04:16:21;57.65;;;29.88;;
18251;SDS011;26917;52.328;20.878;2022-10-31T04:18:50;61.05;;;30.48;;
18251;SDS011;26917;52.328;20.878;2022-10-31T04:21:25;55.85;;;29.50;;
18251;SDS011;26917;52.328;20.878;2022-10-31T04:23:56;91.13;;;38.70;;
18251;SDS011;26917;52.328;20.878;2022-10-31T04:26:28;87.95;;;38.40;;
18251;SDS011;26917;52.328;20.878;2022-10-31T04:28:57;83.60;;;39.47;;
18251;SDS011;26917;52.328;20.878;2022-10-31T04:31:26;80.55;;;40.80;;
18251;SDS011;26917;52.328;20.878;2022-10-31T04:33:55;74.43;;;36.33;;
18251;SDS011;26917;52.328;20.878;2022-10-31T04:36:25;68.32;;;34.25;;
18251;SDS011;26917;52.328;20.878;2022-10-31T04:38:54;63.08;;;32.53;;
18251;SDS011;26917;52.328;20.878;2022-10-31T04:41:34;61.90;;;32.67;;
18251;SDS011;26917;52.328;20.878;2022-10-31T04:44:14;63.13;;;32.65;;
18251;SDS011;26917;52.328;20.878;2022-10-31T04:46:46;63.55;;;32.72;;
18251;SDS011;26917;52.328;20.878;2022-10-31T04:49:14;66.70;;;32.28;;
18251;SDS011;26917;52.328;20.878;2022-10-31T04:51:44;72.20;;;35.58;;
18251;SDS011;26917;52.328;20.878;2022-10-31T04:54:12;65.35;;;34.08;;
18251;SDS011;26917;52.328;20.878;2022-10-31T04:57:16;61.40;;;32.67;;
18251;SDS011;26917;52.328;20.878;2022-10-31T04:59:45;75.43;;;33.45;;
18251;SDS011;26917;52.328;20.878;2022-10-31T05:02:14;55.05;;;30.63;;
18251;SDS011;26917;52.328;20.878;2022-10-31T05:04:49;55.70;;;30.00;;
18251;SDS011;26917;52.328;20.878;2022-10-31T05:07:19;67.43;;;33.42;;
18251;SDS011;26917;52.328;20.878;2022-10-31T05:09:48;69.78;;;35.00;;
18251;SDS011;26917;52.328;20.878;2022-10-31T05:12:18;70.22;;;35.05;;
18251;SDS011;26917;52.328;20.878;2022-10-31T05:15:18;64.68;;;35.00;;
18251;SDS011;26917;52.328;20.878;2022-10-31T05:18:06;87.47;;;38.83;;
18251;SDS011;26917;52.328;20.878;2022-10-31T05:21:00;82.10;;;39.80;;
18251;SDS011;26917;52.328;20.878;2022-10-31T05:23:37;90.25;;;42.53;;
18251;SDS011;26917;52.328;20.878;2022-10-31T05:26:13;90.78;;;43.53;;
18251;SDS011;26917;52.328;20.878;2022-10-31T05:28:41;97.38;;;43.15;;
18251;SDS011;26917;52.328;20.878;2022-10-31T05:31:10;97.28;;;42.72;;
18251;SDS011;26917;52.328;20.878;2022-10-31T05:33:40;93.57;;;43.22;;
18251;SDS011;26917;52.328;20.878;2022-10-31T05:36:27;84.25;;;39.17;;
18251;SDS011;26917;52.328;20.878;2022-10-31T05:39:03;76.97;;;37.85;;
18251;SDS011;26917;52.328;20.878;2022-10-31T05:41:39;73.68;;;38.53;;
18251;SDS011;26917;52.328;20.878;2022-10-31T05:44:13;82.50;;;37.70;;
18251;SDS011;26917;52.328;20.878;2022-10-31T05:47:07;80.78;;;36.88;;
18251;SDS011;26917;52.328;20.878;2022-10-31T05:49:35;82.65;;;36.47;;
18251;SDS011;26917;52.328;20.878;2022-10-31T05:52:42;73.50;;;35.95;;
18251;SDS011;26917;52.328;20.878;2022-10-31T05:55:29;75.07;;;37.13;;
18251;SDS011;26917;52.328;20.878;2022-10-31T05:58:18;87.22;;;41.95;;
18251;SDS011;26917;52.328;20.878;2022-10-31T06:00:53;94.07;;;42.47;;
18251;SDS011;26917;52.328;20.878;2022-10-31T06:03:21;96.05;;;44.30;;
18251;SDS011;26917;52.328;20.878;2022-10-31T06:05:53;95.53;;;43.15;;
18251;SDS011;26917;52.328;20.878;2022-10-31T06:08:29;90.53;;;44.08;;
18251;SDS011;26917;52.328;20.878;2022-10-31T06:11:04;89.80;;;45.15;;
18251;SDS011;26917;52.328;20.878;2022-10-31T06:13:50;81.90;;;42.30;;
18251;SDS011;26917;52.328;20.878;2022-10-31T06:16:23;91.18;;;44.80;;
18251;SDS011;26917;52.328;20.878;2022-10-31T06:18:54;94.88;;;46.58;;
18251;SDS011;26917;52.328;20.878;2022-10-31T06:21:22;92.90;;;46.17;;
18251;SDS011;26917;52.328;20.878;2022-10-31T06:23:51;89.57;;;43.83;;
18251;SDS011;26917;52.328;20.878;2022-10-31T06:26:46;94.63;;;45.70;;
18251;SDS011;26917;52.328;20.878;2022-10-31T06:29:14;93.47;;;46.55;;
18251;SDS011;26917;52.328;20.878;2022-10-31T06:32:04;89.82;;;43.28;;
18251;SDS011;26917;52.328;20.878;2022-10-31T06:34:37;86.28;;;45.13;;
18251;SDS011;26917;52.328;20.878;2022-10-31T06:37:07;88.93;;;44.55;;
18251;SDS011;26917;52.328;20.878;2022-10-31T06:39:36;88.97;;;45.00;;
18251;SDS011;26917;52.328;20.878;2022-10-31T06:42:08;89.40;;;44.15;;
18251;SDS011;26917;52.328;20.878;2022-10-31T06:44:36;82.85;;;44.67;;
18251;SDS011;26917;52.328;20.878;2022-10-31T06:47:42;91.40;;;44.03;;
18251;SDS011;26917;52.328;20.878;2022-10-31T06:50:56;89.10;;;43.78;;
18251;SDS011;26917;52.328;20.878;2022-10-31T06:53:26;88.28;;;45.15;;
18251;SDS011;26917;52.328;20.878;2022-10-31T06:55:56;88.45;;;45.13;;
18251;SDS011;26917;52.328;20.878;2022-10-31T06:58:26;87.72;;;45.90;;
18251;SDS011;26917;52.328;20.878;2022-10-31T07:00:59;90.70;;;44.90;;
18251;SDS011;26917;52.328;20.878;2022-10-31T07:03:27;90.72;;;43.53;;
18251;SDS011;26917;52.328;20.878;2022-10-31T07:05:56;92.35;;;45.40;;
18251;SDS011;26917;52.328;20.878;2022-10-31T07:08:25;84.32;;;44.53;;
18251;SDS011;26917;52.328;20.878;2022-10-31T07:10:54;88.13;;;46.03;;
18251;SDS011;26917;52.328;20.878;2022-10-31T07:13:27;93.90;;;45.75;;
18251;SDS011;26917;52.328;20.878;2022-10-31T07:16:06;90.43;;;45.63;;
18251;SDS011;26917;52.328;20.878;2022-10-31T07:18:39;98.65;;;46.38;;
18251;SDS011;26917;52.328;20.878;2022-10-31T07:21:08;91.00;;;46.47;;
18251;SDS011;26917;52.328;20.878;2022-10-31T07:23:36;95.10;;;47.20;;
18251;SDS011;26917;52.328;20.878;2022-10-31T07:26:30;88.55;;;46.20;;
18251;SDS011;26917;52.328;20.878;2022-10-31T07:29:00;98.65;;;48.97;;
18251;SDS011;26917;52.328;20.878;2022-10-31T07:31:28;90.43;;;46.83;;
18251;SDS011;26917;52.328;20.878;2022-10-31T07:34:02;88.15;;;47.22;;
18251;SDS011;26917;52.328;20.878;2022-10-31T07:36:33;92.90;;;46.95;;
18251;SDS011;26917;52.328;20.878;2022-10-31T07:39:03;92.90;;;45.90;;
18251;SDS011;26917;52.328;20.878;2022-10-31T07:41:33;95.05;;;47.80;;
18251;SDS011;26917;52.328;20.878;2022-10-31T07:44:03;90.97;;;49.33;;
18251;SDS011;26917;52.328;20.878;2022-10-31T07:47:03;93.13;;;48.22;;
18251;SDS011;26917;52.328;20.878;2022-10-31T07:49:50;94.82;;;46.92;;
18251;SDS011;26917;52.328;20.878;2022-10-31T07:52:36;97.95;;;48.38;;
18251;SDS011;26917;52.328;20.878;2022-10-31T07:55:43;90.18;;;45.17;;
18251;SDS011;26917;52.328;20.878;2022-10-31T07:58:13;99.68;;;47.65;;
18251;SDS011;26917;52.328;20.878;2022-10-31T08:00:44;102.13;;;48.05;;
18251;SDS011;26917;52.328;20.878;2022-10-31T08:03:24;90.65;;;46.63;;
18251;SDS011;26917;52.328;20.878;2022-10-31T08:06:11;97.00;;;46.97;;
18251;SDS011;26917;52.328;20.878;2022-10-31T08:09:08;88.13;;;45.25;;
18251;SDS011;26917;52.328;20.878;2022-10-31T08:11:38;95.53;;;47.22;;
18251;SDS011;26917;52.328;20.878;2022-10-31T08:14:06;104.80;;;49.22;;
18251;SDS011;26917;52.328;20.878;2022-10-31T08:16:36;91.22;;;46.97;;
18251;SDS011;26917;52.328;20.878;2022-10-31T08:19:05;104.93;;;46.45;;
18251;SDS011;26917;52.328;20.878;2022-10-31T08:21:37;95.53;;;45.92;;
18251;SDS011;26917;52.328;20.878;2022-10-31T08:24:07;90.60;;;45.97;;
18251;SDS011;26917;52.328;20.878;2022-10-31T08:26:36;90.32;;;46.05;;
18251;SDS011;26917;52.328;20.878;2022-10-31T08:29:07;90.70;;;44.92;;
18251;SDS011;26917;52.328;20.878;2022-10-31T08:31:38;92.68;;;45.65;;
18251;SDS011;26917;52.328;20.878;2022-10-31T08:34:27;82.07;;;42.67;;
18251;SDS011;26917;52.328;20.878;2022-10-31T08:37:13;73.93;;;41.75;;
18251;SDS011;26917;52.328;20.878;2022-10-31T08:39:51;87.65;;;44.45;;
18251;SDS011;26917;52.328;20.878;2022-10-31T08:42:20;79.93;;;40.00;;
18251;SDS011;26917;52.328;20.878;2022-10-31T08:44:48;77.20;;;39.67;;
18251;SDS011;26917;52.328;20.878;2022-10-31T08:47:21;71.55;;;39.25;;
18251;SDS011;26917;52.328;20.878;2022-10-31T08:49:50;71.95;;;37.00;;
18251;SDS011;26917;52.328;20.878;2022-10-31T08:52:18;69.00;;;37.45;;
18251;SDS011;26917;52.328;20.878;2022-10-31T08:55:10;68.18;;;36.67;;
18251;SDS011;26917;52.328;20.878;2022-10-31T08:57:44;79.00;;;36.55;;
18251;SDS011;26917;52.328;20.878;2022-10-31T09:00:13;65.30;;;34.65;;
18251;SDS011;26917;52.328;20.878;2022-10-31T09:02:58;70.85;;;36.63;;
18251;SDS011;26917;52.328;20.878;2022-10-31T09:05:29;67.93;;;34.63;;
18251;SDS011;26917;52.328;20.878;2022-10-31T09:07:58;61.80;;;33.20;;
18251;SDS011;26917;52.328;20.878;2022-10-31T09:10:29;69.18;;;34.42;;
18251;SDS011;26917;52.328;20.878;2022-10-31T09:13:03;69.55;;;32.28;;
18251;SDS011;26917;52.328;20.878;2022-10-31T09:15:58;67.65;;;32.60;;
18251;SDS011;26917;52.328;20.878;2022-10-31T09:18:28;69.65;;;34.22;;
18251;SDS011;26917;52.328;20.878;2022-10-31T09:20:58;57.00;;;31.08;;
18251;SDS011;26917;52.328;20.878;2022-10-31T09:23:29;63.47;;;29.05;;
18251;SDS011;26917;52.328;20.878;2022-10-31T09:25:59;68.13;;;29.52;;
18251;SDS011;26917;52.328;20.878;2022-10-31T09:28:41;61.33;;;29.95;;
18251;SDS011;26917;52.328;20.878;2022-10-31T09:31:12;58.28;;;28.83;;
18251;SDS011;26917;52.328;20.878;2022-10-31T09:33:48;55.20;;;27.58;;
18251;SDS011;26917;52.328;20.878;2022-10-31T09:36:34;55.70;;;27.00;;
18251;SDS011;26917;52.328;20.878;2022-10-31T09:39:05;55.22;;;25.67;;
18251;SDS011;26917;52.328;20.878;2022-10-31T09:41:39;51.28;;;24.75;;
18251;SDS011;26917;52.328;20.878;2022-10-31T09:44:26;46.47;;;24.25;;
18251;SDS011;26917;52.328;20.878;2022-10-31T09:47:00;44.65;;;25.15;;
18251;SDS011;26917;52.328;20.878;2022-10-31T09:49:36;48.17;;;25.45;;
18251;SDS011;26917;52.328;20.878;2022-10-31T09:52:12;46.40;;;23.42;;
18251;SDS011;26917;52.328;20.878;2022-10-31T09:54:52;41.92;;;23.98;;
18251;SDS011;26917;52.328;20.878;2022-10-31T09:57:24;41.72;;;21.88;;
18251;SDS011;26917;52.328;20.878;2022-10-31T09:59:56;42.15;;;22.35;;
18251;SDS011;26917;52.328;20.878;2022-10-31T10:02:26;48.60;;;22.38;;
18251;SDS011;26917;52.328;20.878;2022-10-31T10:05:04;41.20;;;21.35;;
18251;SDS011;26917;52.328;20.878;2022-10-31T10:07:41;44.55;;;22.02;;
18251;SDS011;26917;52.328;20.878;2022-10-31T10:10:54;39.83;;;20.15;;
18251;SDS011;26917;52.328;20.878;2022-10-31T10:14:10;40.50;;;20.50;;
18251;SDS011;26917;52.328;20.878;2022-10-31T10:16:47;40.25;;;20.70;;
18251;SDS011;26917;52.328;20.878;2022-10-31T10:19:35;37.45;;;20.33;;
18251;SDS011;26917;52.328;20.878;2022-10-31T10:22:18;41.05;;;18.75;;
18251;SDS011;26917;52.328;20.878;2022-10-31T10:24:55;37.65;;;21.05;;
18251;SDS011;26917;52.328;20.878;2022-10-31T10:27:36;35.58;;;20.23;;
18251;SDS011;26917;52.328;20.878;2022-10-31T10:30:18;39.72;;;19.73;;
18251;SDS011;26917;52.328;20.878;2022-10-31T10:32:48;35.30;;;18.45;;
18251;SDS011;26917;52.328;20.878;2022-10-31T10:35:20;30.80;;;17.55;;
18251;SDS011;26917;52.328;20.878;2022-10-31T10:37:54;36.63;;;18.42;;
18251;SDS011;26917;52.328;20.878;2022-10-31T10:40:27;38.42;;;19.35;;
18251;SDS011;26917;52.328;20.878;2022-10-31T10:42:59;31.63;;;18.00;;
18251;SDS011;26917;52.328;20.878;2022-10-31T10:45:48;33.88;;;19.38;;
18251;SDS011;26917;52.328;20.878;2022-10-31T10:48:42;33.72;;;19.02;;
18251;SDS011;26917;52.328;20.878;2022-10-31T10:51:15;32.97;;;19.10;;
18251;SDS011;26917;52.328;20.878;2022-10-31T10:54:23;34.08;;;20.77;;
18251;SDS011;26917;52.328;20.878;2022-10-31T10:57:27;37.55;;;19.98;;
18251;SDS011;26917;52.328;20.878;2022-10-31T11:00:12;31.90;;;17.88;;
18251;SDS011;26917;52.328;20.878;2022-10-31T11:02:47;33.58;;;19.33;;
18251;SDS011;26917;52.328;20.878;2022-10-31T11:05:20;40.05;;;20.42;;
18251;SDS011;26917;52.328;20.878;2022-10-31T11:07:56;42.28;;;20.38;;
18251;SDS011;26917;52.328;20.878;2022-10-31T11:10:25;35.08;;;20.02;;
18251;SDS011;26917;52.328;20.878;2022-10-31T11:12:59;34.45;;;19.40;;
18251;SDS011;26917;52.328;20.878;2022-10-31T11:15:31;33.22;;;18.88;;
18251;SDS011;26917;52.328;20.878;2022-10-31T11:18:03;32.67;;;18.75;;
18251;SDS011;26917;52.328;20.878;2022-10-31T11:20:33;39.25;;;21.10;;
18251;SDS011;26917;52.328;20.878;2022-10-31T11:23:15;35.92;;;20.90;;
18251;SDS011;26917;52.328;20.878;2022-10-31T11:25:50;39.45;;;21.02;;
18251;SDS011;26917;52.328;20.878;2022-10-31T11:28:20;38.45;;;21.45;;
18251;SDS011;26917;52.328;20.878;2022-10-31T11:30:49;35.25;;;21.08;;
18251;SDS011;26917;52.328;20.878;2022-10-31T11:33:24;39.80;;;21.83;;
18251;SDS011;26917;52.328;20.878;2022-10-31T11:35:55;39.22;;;20.70;;
18251;SDS011;26917;52.328;20.878;2022-10-31T11:38:26;42.70;;;22.08;;
18251;SDS011;26917;52.328;20.878;2022-10-31T11:41:06;47.97;;;22.88;;
18251;SDS011;26917;52.328;20.878;2022-10-31T11:43:38;35.72;;;22.60;;
18251;SDS011;26917;52.328;20.878;2022-10-31T11:46:15;40.17;;;21.63;;
18251;SDS011;26917;52.328;20.878;2022-10-31T11:48:48;36.72;;;20.35;;
18251;SDS011;26917;52.328;20.878;2022-10-31T11:51:22;35.47;;;20.33;;
18251;SDS011;26917;52.328;20.878;2022-10-31T11:53:54;38.22;;;21.40;;
18251;SDS011;26917;52.328;20.878;2022-10-31T11:56:38;35.05;;;20.08;;
18251;SDS011;26917;52.328;20.878;2022-10-31T11:59:25;39.15;;;21.70;;
18251;SDS011;26917;52.328;20.878;2022-10-31T12:01:55;32.60;;;19.42;;
18251;SDS011;26917;52.328;20.878;2022-10-31T12:04:28;41.45;;;23.33;;
18251;SDS011;26917;52.328;20.878;2022-10-31T12:07:02;41.05;;;21.23;;
18251;SDS011;26917;52.328;20.878;2022-10-31T12:09:33;38.83;;;22.00;;
18251;SDS011;26917;52.328;20.878;2022-10-31T12:12:09;37.80;;;22.85;;
18251;SDS011;26917;52.328;20.878;2022-10-31T12:15:01;35.50;;;20.25;;
18251;SDS011;26917;52.328;20.878;2022-10-31T12:17:39;36.95;;;21.30;;
18251;SDS011;26917;52.328;20.878;2022-10-31T12:20:17;35.70;;;19.67;;
18251;SDS011;26917;52.328;20.878;2022-10-31T12:22:52;37.20;;;20.75;;
18251;SDS011;26917;52.328;20.878;2022-10-31T12:25:32;36.00;;;20.85;;
18251;SDS011;26917;52.328;20.878;2022-10-31T12:28:14;42.83;;;21.63;;
18251;SDS011;26917;52.328;20.878;2022-10-31T12:30:59;35.88;;;21.25;;
18251;SDS011;26917;52.328;20.878;2022-10-31T12:33:40;36.47;;;20.00;;
18251;SDS011;26917;52.328;20.878;2022-10-31T12:36:19;32.80;;;19.75;;
18251;SDS011;26917;52.328;20.878;2022-10-31T12:39:02;32.58;;;19.02;;
18251;SDS011;26917;52.328;20.878;2022-10-31T12:41:51;31.20;;;19.35;;
18251;SDS011;26917;52.328;20.878;2022-10-31T12:50:50;35.90;;;19.77;;
18251;SDS011;26917;52.328;20.878;2022-10-31T12:53:26;31.23;;;18.65;;
18251;SDS011;26917;52.328;20.878;2022-10-31T12:56:07;35.60;;;19.10;;
18251;SDS011;26917;52.328;20.878;2022-10-31T12:58:45;35.13;;;18.10;;
18251;SDS011;26917;52.328;20.878;2022-10-31T13:01:19;34.53;;;19.05;;
18251;SDS011;26917;52.328;20.878;2022-10-31T13:03:52;33.25;;;19.15;;
18251;SDS011;26917;52.328;20.878;2022-10-31T13:06:27;34.33;;;18.98;;
18251;SDS011;26917;52.328;20.878;2022-10-31T13:09:05;33.83;;;20.05;;
18251;SDS011;26917;52.328;20.878;2022-10-31T13:11:36;32.47;;;18.27;;
18251;SDS011;26917;52.328;20.878;2022-10-31T13:14:09;35.58;;;20.30;;
18251;SDS011;26917;52.328;20.878;2022-10-31T13:16:45;28.63;;;17.58;;
18251;SDS011;26917;52.328;20.878;2022-10-31T13:19:16;39.45;;;20.55;;
18251;SDS011;26917;52.328;20.878;2022-10-31T13:21:49;32.60;;;18.35;;
18251;SDS011;26917;52.328;20.878;2022-10-31T13:24:23;35.30;;;20.35;;
18251;SDS011;26917;52.328;20.878;2022-10-31T13:26:58;37.90;;;19.60;;
18251;SDS011;26917;52.328;20.878;2022-10-31T13:29:29;41.35;;;21.65;;
18251;SDS011;26917;52.328;20.878;2022-10-31T13:32:05;39.83;;;19.77;;
18251;SDS011;26917;52.328;20.878;2022-10-31T13:34:34;34.25;;;19.92;;
18251;SDS011;26917;52.328;20.878;2022-10-31T13:37:06;34.45;;;19.33;;
18251;SDS011;26917;52.328;20.878;2022-10-31T13:39:49;35.83;;;19.70;;
18251;SDS011;26917;52.328;20.878;2022-10-31T13:42:37;38.47;;;20.10;;
18251;SDS011;26917;52.328;20.878;2022-10-31T13:45:15;33.47;;;17.15;;
18251;SDS011;26917;52.328;20.878;2022-10-31T13:47:56;32.97;;;18.17;;
18251;SDS011;26917;52.328;20.878;2022-10-31T13:50:26;34.17;;;18.27;;
18251;SDS011;26917;52.328;20.878;2022-10-31T13:53:10;33.05;;;16.90;;
18251;SDS011;26917;52.328;20.878;2022-10-31T13:55:41;46.00;;;20.33;;
18251;SDS011;26917;52.328;20.878;2022-10-31T13:58:19;38.30;;;20.80;;
18251;SDS011;26917;52.328;20.878;2022-10-31T14:01:01;41.00;;;19.08;;
18251;SDS011;26917;52.328;20.878;2022-10-31T14:03:41;36.08;;;18.92;;
18251;SDS011;26917;52.328;20.878;2022-10-31T14:06:36;32.47;;;18.80;;
18251;SDS011;26917;52.328;20.878;2022-10-31T14:09:16;47.00;;;23.77;;
18251;SDS011;26917;52.328;20.878;2022-10-31T14:11:49;43.05;;;23.25;;
18251;SDS011;26917;52.328;20.878;2022-10-31T14:14:18;43.63;;;23.35;;
18251;SDS011;26917;52.328;20.878;2022-10-31T14:16:53;43.00;;;23.85;;
18251;SDS011;26917;52.328;20.878;2022-10-31T14:19:25;46.20;;;23.92;;
18251;SDS011;26917;52.328;20.878;2022-10-31T14:21:57;46.30;;;25.00;;
18251;SDS011;26917;52.328;20.878;2022-10-31T14:24:33;48.45;;;23.98;;
18251;SDS011;26917;52.328;20.878;2022-10-31T14:27:05;47.88;;;25.58;;
18251;SDS011;26917;52.328;20.878;2022-10-31T14:32:47;49.70;;;25.88;;
18251;SDS011;26917;52.328;20.878;2022-10-31T14:35:23;51.88;;;26.90;;
18251;SDS011;26917;52.328;20.878;2022-10-31T14:40:49;74.32;;;39.55;;
18251;SDS011;26917;52.328;20.878;2022-10-31T14:43:35;59.00;;;30.48;;
18251;SDS011;26917;52.328;20.878;2022-10-31T14:46:28;59.63;;;29.42;;
18251;SDS011;26917;52.328;20.878;2022-10-31T14:49:10;87.88;;;39.80;;
18251;SDS011;26917;52.328;20.878;2022-10-31T14:51:48;68.03;;;32.47;;
18251;SDS011;26917;52.328;20.878;2022-10-31T14:54:19;57.00;;;28.10;;
18251;SDS011;26917;52.328;20.878;2022-10-31T14:56:53;64.03;;;30.02;;
18251;SDS011;26917;52.328;20.878;2022-10-31T14:59:25;57.25;;;29.25;;
18251;SDS011;26917;52.328;20.878;2022-10-31T15:02:09;59.13;;;28.23;;
18251;SDS011;26917;52.328;20.878;2022-10-31T15:04:42;56.40;;;28.52;;
18251;SDS011;26917;52.328;20.878;2022-10-31T15:07:15;63.33;;;29.20;;
18251;SDS011;26917;52.328;20.878;2022-10-31T15:09:56;67.25;;;31.45;;
18251;SDS011;26917;52.328;20.878;2022-10-31T15:12:26;61.45;;;30.98;;
18251;SDS011;26917;52.328;20.878;2022-10-31T15:14:55;74.72;;;35.35;;